sensor_id;sensor_type;location;lat;lon;timestamp;P1;durP1;ratioP1;P2;durP2;ratioP2
12224;SDS011;6175;50.956;11.064;2023-11-22T00:02:17;6.97;;;5.30;;
12224;SDS011;6175;50.956;11.064;2023-11-22T00:04:44;7.33;;;5.23;;
12224;SDS011;6175;50.956;11.064;2023-11-22T00:07:11;8.90;;;6.17;;
12224;SDS011;6175;50.956;11.064;2023-11-22T00:09:38;9.67;;;6.50;;
12224;SDS011;6175;50.956;11.064;2023-11-22T00:12:07;11.33;;;7.47;;
12224;SDS011;6175;50.956;11.064;2023-11-22T00:14:36;8.93;;;6.17;;
12224;SDS011;6175;50.956;11.064;2023-11-22T00:17:03;9.10;;;6.80;;
12224;SDS011;6175;50.956;11.064;2023-11-22T00:19:31;10.70;;;6.97;;
12224;SDS011;6175;50.956;11.064;2023-11-22T00:21:59;9.20;;;6.80;;
12224;SDS011;6175;50.956;11.064;2023-11-22T00:24:28;8.50;;;6.77;;
12224;SDS011;6175;50.956;11.064;2023-11-22T00:26:55;7.80;;;6.10;;
12224;SDS011;6175;50.956;11.064;2023-11-22T00:29:22;8.17;;;6.67;;
12224;SDS011;6175;50.956;11.064;2023-11-22T00:31:51;9.40;;;7.60;;
12224;SDS011;6175;50.956;11.064;2023-11-22T00:34:18;10.23;;;8.37;;
12224;SDS011;6175;50.956;11.064;2023-11-22T00:36:45;12.70;;;8.03;;
12224;SDS011;6175;50.956;11.064;2023-11-22T00:39:13;9.80;;;7.63;;
12224;SDS011;6175;50.956;11.064;2023-11-22T00:41:41;8.33;;;6.80;;
12224;SDS011;6175;50.956;11.064;2023-11-22T00:44:09;9.10;;;7.20;;
12224;SDS011;6175;50.956;11.064;2023-11-22T00:46:36;8.33;;;6.57;;
12224;SDS011;6175;50.956;11.064;2023-11-22T00:49:05;7.40;;;5.80;;
12224;SDS011;6175;50.956;11.064;2023-11-22T00:51:33;11.07;;;7.43;;
12224;SDS011;6175;50.956;11.064;2023-11-22T00:54:00;10.47;;;6.97;;
12224;SDS011;6175;50.956;11.064;2023-11-22T00:56:28;8.57;;;7.00;;
12224;SDS011;6175;50.956;11.064;2023-11-22T00:58:55;10.70;;;6.73;;
12224;SDS011;6175;50.956;11.064;2023-11-22T01:01:24;13.97;;;9.63;;
12224;SDS011;6175;50.956;11.064;2023-11-22T01:03:52;9.13;;;7.40;;
12224;SDS011;6175;50.956;11.064;2023-11-22T01:06:20;9.80;;;7.03;;
12224;SDS011;6175;50.956;11.064;2023-11-22T01:08:48;7.80;;;6.03;;
12224;SDS011;6175;50.956;11.064;2023-11-22T01:11:15;8.73;;;6.20;;
12224;SDS011;6175;50.956;11.064;2023-11-22T01:13:43;8.17;;;6.70;;
12224;SDS011;6175;50.956;11.064;2023-11-22T01:16:11;10.60;;;7.33;;
12224;SDS011;6175;50.956;11.064;2023-11-22T01:18:39;9.73;;;7.23;;
12224;SDS011;6175;50.956;11.064;2023-11-22T01:21:06;9.33;;;6.60;;
12224;SDS011;6175;50.956;11.064;2023-11-22T01:23:34;6.93;;;5.60;;
12224;SDS011;6175;50.956;11.064;2023-11-22T01:26:01;6.30;;;5.30;;
12224;SDS011;6175;50.956;11.064;2023-11-22T01:28:30;6.20;;;5.10;;
12224;SDS011;6175;50.956;11.064;2023-11-22T01:30:59;7.00;;;5.13;;
12224;SDS011;6175;50.956;11.064;2023-11-22T01:33:27;6.10;;;4.83;;
12224;SDS011;6175;50.956;11.064;2023-11-22T01:35:54;10.50;;;7.53;;
12224;SDS011;6175;50.956;11.064;2023-11-22T01:38:21;12.07;;;8.20;;
12224;SDS011;6175;50.956;11.064;2023-11-22T01:40:51;11.60;;;8.57;;
12224;SDS011;6175;50.956;11.064;2023-11-22T01:43:19;20.73;;;13.10;;
12224;SDS011;6175;50.956;11.064;2023-11-22T01:45:48;14.07;;;9.40;;
12224;SDS011;6175;50.956;11.064;2023-11-22T01:48:16;9.93;;;6.33;;
12224;SDS011;6175;50.956;11.064;2023-11-22T01:50:43;8.07;;;5.93;;
12224;SDS011;6175;50.956;11.064;2023-11-22T01:53:11;7.40;;;6.13;;
12224;SDS011;6175;50.956;11.064;2023-11-22T01:55:38;6.83;;;5.47;;
12224;SDS011;6175;50.956;11.064;2023-11-22T01:58:07;7.30;;;5.60;;
12224;SDS011;6175;50.956;11.064;2023-11-22T02:00:35;6.87;;;4.70;;
12224;SDS011;6175;50.956;11.064;2023-11-22T02:03:08;7.13;;;6.07;;
12224;SDS011;6175;50.956;11.064;2023-11-22T02:05:35;5.67;;;4.97;;
12224;SDS011;6175;50.956;11.064;2023-11-22T02:08:03;6.60;;;5.37;;
12224;SDS011;6175;50.956;11.064;2023-11-22T02:10:30;6.87;;;5.77;;
12224;SDS011;6175;50.956;11.064;2023-11-22T02:12:57;6.93;;;5.73;;
12224;SDS011;6175;50.956;11.064;2023-11-22T02:15:25;6.10;;;5.10;;
12224;SDS011;6175;50.956;11.064;2023-11-22T02:17:53;7.23;;;5.47;;
12224;SDS011;6175;50.956;11.064;2023-11-22T02:20:20;8.07;;;5.87;;
12224;SDS011;6175;50.956;11.064;2023-11-22T02:22:47;6.07;;;5.33;;
12224;SDS011;6175;50.956;11.064;2023-11-22T02:25:16;8.00;;;6.23;;
12224;SDS011;6175;50.956;11.064;2023-11-22T02:27:44;6.83;;;5.90;;
12224;SDS011;6175;50.956;11.064;2023-11-22T02:30:11;6.20;;;5.30;;
12224;SDS011;6175;50.956;11.064;2023-11-22T02:32:38;6.43;;;5.60;;
12224;SDS011;6175;50.956;11.064;2023-11-22T02:35:05;8.13;;;5.80;;
12224;SDS011;6175;50.956;11.064;2023-11-22T02:37:33;6.07;;;4.90;;
12224;SDS011;6175;50.956;11.064;2023-11-22T02:40:02;7.53;;;5.03;;
12224;SDS011;6175;50.956;11.064;2023-11-22T02:42:33;6.23;;;4.97;;
12224;SDS011;6175;50.956;11.064;2023-11-22T02:45:00;5.70;;;4.47;;
12224;SDS011;6175;50.956;11.064;2023-11-22T02:47:27;7.33;;;5.07;;
12224;SDS011;6175;50.956;11.064;2023-11-22T02:49:55;6.70;;;5.17;;
12224;SDS011;6175;50.956;11.064;2023-11-22T02:52:22;6.67;;;5.57;;
12224;SDS011;6175;50.956;11.064;2023-11-22T02:54:51;6.83;;;5.33;;
12224;SDS011;6175;50.956;11.064;2023-11-22T02:57:18;6.00;;;5.10;;
12224;SDS011;6175;50.956;11.064;2023-11-22T02:59:47;7.57;;;5.80;;
12224;SDS011;6175;50.956;11.064;2023-11-22T03:02:14;8.33;;;5.93;;
12224;SDS011;6175;50.956;11.064;2023-11-22T03:04:42;6.83;;;5.73;;
12224;SDS011;6175;50.956;11.064;2023-11-22T03:07:09;6.10;;;5.47;;
12224;SDS011;6175;50.956;11.064;2023-11-22T03:09:37;6.73;;;5.57;;
12224;SDS011;6175;50.956;11.064;2023-11-22T03:12:05;6.97;;;5.80;;
12224;SDS011;6175;50.956;11.064;2023-11-22T03:14:34;7.23;;;5.87;;
12224;SDS011;6175;50.956;11.064;2023-11-22T03:17:03;8.13;;;6.10;;
12224;SDS011;6175;50.956;11.064;2023-11-22T03:19:30;7.63;;;5.60;;
12224;SDS011;6175;50.956;11.064;2023-11-22T03:21:59;7.97;;;6.40;;
12224;SDS011;6175;50.956;11.064;2023-11-22T03:24:27;6.30;;;5.47;;
12224;SDS011;6175;50.956;11.064;2023-11-22T03:26:55;6.77;;;6.07;;
12224;SDS011;6175;50.956;11.064;2023-11-22T03:29:24;6.67;;;5.17;;
12224;SDS011;6175;50.956;11.064;2023-11-22T03:31:51;5.80;;;5.20;;
12224;SDS011;6175;50.956;11.064;2023-11-22T03:34:20;6.47;;;5.40;;
12224;SDS011;6175;50.956;11.064;2023-11-22T03:36:47;6.73;;;5.80;;
12224;SDS011;6175;50.956;11.064;2023-11-22T03:39:15;6.10;;;5.10;;
12224;SDS011;6175;50.956;11.064;2023-11-22T03:41:42;7.60;;;5.63;;
12224;SDS011;6175;50.956;11.064;2023-11-22T03:44:10;7.70;;;6.27;;
12224;SDS011;6175;50.956;11.064;2023-11-22T03:46:37;6.47;;;5.30;;
12224;SDS011;6175;50.956;11.064;2023-11-22T03:49:05;6.40;;;5.30;;
12224;SDS011;6175;50.956;11.064;2023-11-22T03:51:34;8.17;;;6.20;;
12224;SDS011;6175;50.956;11.064;2023-11-22T03:54:02;8.47;;;6.17;;
12224;SDS011;6175;50.956;11.064;2023-11-22T03:56:29;6.93;;;5.77;;
12224;SDS011;6175;50.956;11.064;2023-11-22T03:58:56;6.03;;;5.43;;
12224;SDS011;6175;50.956;11.064;2023-11-22T04:01:23;8.10;;;5.80;;
12224;SDS011;6175;50.956;11.064;2023-11-22T04:03:51;7.30;;;5.73;;
12224;SDS011;6175;50.956;11.064;2023-11-22T04:06:18;5.93;;;5.00;;
12224;SDS011;6175;50.956;11.064;2023-11-22T04:08:47;6.40;;;5.40;;
12224;SDS011;6175;50.956;11.064;2023-11-22T04:11:14;7.70;;;5.37;;
12224;SDS011;6175;50.956;11.064;2023-11-22T04:13:43;6.17;;;5.10;;
12224;SDS011;6175;50.956;11.064;2023-11-22T04:16:10;7.10;;;5.43;;
12224;SDS011;6175;50.956;11.064;2023-11-22T04:18:38;8.10;;;5.67;;
12224;SDS011;6175;50.956;11.064;2023-11-22T04:21:05;6.77;;;5.30;;
12224;SDS011;6175;50.956;11.064;2023-11-22T04:23:32;6.87;;;5.10;;
12224;SDS011;6175;50.956;11.064;2023-11-22T04:26:02;6.07;;;5.03;;
12224;SDS011;6175;50.956;11.064;2023-11-22T04:28:29;6.17;;;4.70;;
12224;SDS011;6175;50.956;11.064;2023-11-22T04:30:56;7.00;;;5.17;;
12224;SDS011;6175;50.956;11.064;2023-11-22T04:33:23;7.03;;;5.50;;
12224;SDS011;6175;50.956;11.064;2023-11-22T04:35:53;7.90;;;5.60;;
12224;SDS011;6175;50.956;11.064;2023-11-22T04:38:20;6.20;;;5.07;;
12224;SDS011;6175;50.956;11.064;2023-11-22T04:40:47;6.73;;;5.40;;
12224;SDS011;6175;50.956;11.064;2023-11-22T04:43:16;6.90;;;5.70;;
12224;SDS011;6175;50.956;11.064;2023-11-22T04:45:43;7.13;;;6.00;;
12224;SDS011;6175;50.956;11.064;2023-11-22T04:48:10;8.03;;;6.63;;
12224;SDS011;6175;50.956;11.064;2023-11-22T04:50:40;7.40;;;6.07;;
12224;SDS011;6175;50.956;11.064;2023-11-22T04:53:07;7.90;;;6.10;;
12224;SDS011;6175;50.956;11.064;2023-11-22T04:55:34;6.90;;;5.53;;
12224;SDS011;6175;50.956;11.064;2023-11-22T04:58:02;6.97;;;5.80;;
12224;SDS011;6175;50.956;11.064;2023-11-22T05:00:30;7.90;;;6.10;;
12224;SDS011;6175;50.956;11.064;2023-11-22T05:02:57;8.63;;;6.43;;
12224;SDS011;6175;50.956;11.064;2023-11-22T05:05:25;7.90;;;5.47;;
12224;SDS011;6175;50.956;11.064;2023-11-22T05:07:52;6.97;;;5.50;;
12224;SDS011;6175;50.956;11.064;2023-11-22T05:10:19;8.60;;;6.53;;
12224;SDS011;6175;50.956;11.064;2023-11-22T05:12:46;7.83;;;5.57;;
12224;SDS011;6175;50.956;11.064;2023-11-22T05:15:13;6.67;;;5.70;;
12224;SDS011;6175;50.956;11.064;2023-11-22T05:17:42;7.07;;;5.67;;
12224;SDS011;6175;50.956;11.064;2023-11-22T05:20:09;6.53;;;5.63;;
12224;SDS011;6175;50.956;11.064;2023-11-22T05:22:36;8.77;;;5.90;;
12224;SDS011;6175;50.956;11.064;2023-11-22T05:25:04;7.67;;;6.17;;
12224;SDS011;6175;50.956;11.064;2023-11-22T05:27:32;7.83;;;5.73;;
12224;SDS011;6175;50.956;11.064;2023-11-22T05:29:59;8.30;;;5.63;;
12224;SDS011;6175;50.956;11.064;2023-11-22T05:32:27;11.07;;;6.30;;
12224;SDS011;6175;50.956;11.064;2023-11-22T05:34:57;7.77;;;5.97;;
12224;SDS011;6175;50.956;11.064;2023-11-22T05:37:24;8.83;;;6.13;;
12224;SDS011;6175;50.956;11.064;2023-11-22T05:39:51;7.10;;;5.93;;
12224;SDS011;6175;50.956;11.064;2023-11-22T05:42:19;8.63;;;6.47;;
12224;SDS011;6175;50.956;11.064;2023-11-22T05:44:46;8.63;;;6.43;;
12224;SDS011;6175;50.956;11.064;2023-11-22T05:47:15;8.57;;;5.80;;
12224;SDS011;6175;50.956;11.064;2023-11-22T05:49:43;7.50;;;5.80;;
12224;SDS011;6175;50.956;11.064;2023-11-22T05:52:12;7.67;;;6.27;;
12224;SDS011;6175;50.956;11.064;2023-11-22T05:54:39;7.10;;;5.70;;
12224;SDS011;6175;50.956;11.064;2023-11-22T05:57:06;7.10;;;5.60;;
12224;SDS011;6175;50.956;11.064;2023-11-22T05:59:36;7.20;;;6.13;;
12224;SDS011;6175;50.956;11.064;2023-11-22T06:02:03;8.97;;;6.03;;
12224;SDS011;6175;50.956;11.064;2023-11-22T06:04:30;7.93;;;6.60;;
12224;SDS011;6175;50.956;11.064;2023-11-22T06:06:57;10.53;;;6.97;;
12224;SDS011;6175;50.956;11.064;2023-11-22T06:09:26;8.33;;;6.13;;
12224;SDS011;6175;50.956;11.064;2023-11-22T06:11:53;8.80;;;6.47;;
12224;SDS011;6175;50.956;11.064;2023-11-22T06:14:21;8.50;;;6.07;;
12224;SDS011;6175;50.956;11.064;2023-11-22T06:16:48;7.63;;;6.67;;
12224;SDS011;6175;50.956;11.064;2023-11-22T06:19:15;8.13;;;6.60;;
12224;SDS011;6175;50.956;11.064;2023-11-22T06:21:42;8.53;;;6.43;;
12224;SDS011;6175;50.956;11.064;2023-11-22T06:24:10;8.40;;;6.47;;
12224;SDS011;6175;50.956;11.064;2023-11-22T06:26:42;10.57;;;6.67;;
12224;SDS011;6175;50.956;11.064;2023-11-22T06:29:11;10.07;;;6.80;;
12224;SDS011;6175;50.956;11.064;2023-11-22T06:31:38;8.60;;;6.57;;
12224;SDS011;6175;50.956;11.064;2023-11-22T06:34:05;7.97;;;6.40;;
12224;SDS011;6175;50.956;11.064;2023-11-22T06:36:33;8.57;;;6.80;;
12224;SDS011;6175;50.956;11.064;2023-11-22T06:39:00;8.53;;;6.53;;
12224;SDS011;6175;50.956;11.064;2023-11-22T06:41:29;8.70;;;6.80;;
12224;SDS011;6175;50.956;11.064;2023-11-22T06:43:57;9.10;;;6.60;;
12224;SDS011;6175;50.956;11.064;2023-11-22T06:46:24;9.43;;;7.43;;
12224;SDS011;6175;50.956;11.064;2023-11-22T06:48:52;8.37;;;6.83;;
12224;SDS011;6175;50.956;11.064;2023-11-22T06:51:19;8.87;;;6.57;;
12224;SDS011;6175;50.956;11.064;2023-11-22T06:53:47;8.73;;;6.60;;
12224;SDS011;6175;50.956;11.064;2023-11-22T06:56:14;8.93;;;6.50;;
12224;SDS011;6175;50.956;11.064;2023-11-22T06:58:41;8.97;;;6.67;;
12224;SDS011;6175;50.956;11.064;2023-11-22T07:01:10;9.83;;;6.77;;
12224;SDS011;6175;50.956;11.064;2023-11-22T07:03:37;8.63;;;6.30;;
12224;SDS011;6175;50.956;11.064;2023-11-22T07:06:05;7.63;;;6.60;;
12224;SDS011;6175;50.956;11.064;2023-11-22T07:08:32;8.53;;;6.13;;
12224;SDS011;6175;50.956;11.064;2023-11-22T07:11:01;7.30;;;6.20;;
12224;SDS011;6175;50.956;11.064;2023-11-22T07:13:29;7.57;;;5.70;;
12224;SDS011;6175;50.956;11.064;2023-11-22T07:15:56;8.23;;;6.63;;
12224;SDS011;6175;50.956;11.064;2023-11-22T07:18:26;8.90;;;6.83;;
12224;SDS011;6175;50.956;11.064;2023-11-22T07:20:53;8.53;;;6.37;;
12224;SDS011;6175;50.956;11.064;2023-11-22T07:23:21;8.63;;;6.93;;
12224;SDS011;6175;50.956;11.064;2023-11-22T07:25:52;8.47;;;6.60;;
12224;SDS011;6175;50.956;11.064;2023-11-22T07:28:19;8.90;;;6.47;;
12224;SDS011;6175;50.956;11.064;2023-11-22T07:30:46;10.00;;;7.10;;
12224;SDS011;6175;50.956;11.064;2023-11-22T07:33:14;9.43;;;6.70;;
12224;SDS011;6175;50.956;11.064;2023-11-22T07:35:43;10.67;;;6.90;;
12224;SDS011;6175;50.956;11.064;2023-11-22T07:38:11;8.90;;;6.97;;
12224;SDS011;6175;50.956;11.064;2023-11-22T07:40:39;9.57;;;6.47;;
12224;SDS011;6175;50.956;11.064;2023-11-22T07:43:06;8.17;;;6.43;;
12224;SDS011;6175;50.956;11.064;2023-11-22T07:45:34;8.20;;;6.70;;
12224;SDS011;6175;50.956;11.064;2023-11-22T07:48:02;8.40;;;6.60;;
12224;SDS011;6175;50.956;11.064;2023-11-22T07:50:29;8.50;;;6.53;;
12224;SDS011;6175;50.956;11.064;2023-11-22T07:52:58;8.30;;;7.03;;
12224;SDS011;6175;50.956;11.064;2023-11-22T07:55:29;8.87;;;7.00;;
12224;SDS011;6175;50.956;11.064;2023-11-22T07:57:57;9.97;;;7.13;;
12224;SDS011;6175;50.956;11.064;2023-11-22T08:00:25;8.07;;;6.83;;
12224;SDS011;6175;50.956;11.064;2023-11-22T08:02:52;11.10;;;7.43;;
12224;SDS011;6175;50.956;11.064;2023-11-22T08:05:20;8.13;;;6.90;;
12224;SDS011;6175;50.956;11.064;2023-11-22T08:07:48;8.20;;;6.60;;
12224;SDS011;6175;50.956;11.064;2023-11-22T08:10:17;10.70;;;6.50;;
12224;SDS011;6175;50.956;11.064;2023-11-22T08:12:45;7.87;;;6.80;;
12224;SDS011;6175;50.956;11.064;2023-11-22T08:15:14;9.40;;;6.53;;
12224;SDS011;6175;50.956;11.064;2023-11-22T08:17:42;8.63;;;7.00;;
12224;SDS011;6175;50.956;11.064;2023-11-22T08:20:10;8.03;;;6.50;;
12224;SDS011;6175;50.956;11.064;2023-11-22T08:22:38;9.67;;;7.10;;
12224;SDS011;6175;50.956;11.064;2023-11-22T08:25:06;9.63;;;7.00;;
12224;SDS011;6175;50.956;11.064;2023-11-22T08:27:35;11.03;;;7.23;;
12224;SDS011;6175;50.956;11.064;2023-11-22T08:30:02;9.47;;;6.83;;
12224;SDS011;6175;50.956;11.064;2023-11-22T08:32:30;10.90;;;7.23;;
12224;SDS011;6175;50.956;11.064;2023-11-22T08:34:58;10.50;;;6.83;;
12224;SDS011;6175;50.956;11.064;2023-11-22T08:37:25;9.30;;;7.53;;
12224;SDS011;6175;50.956;11.064;2023-11-22T08:39:52;9.90;;;7.03;;
12224;SDS011;6175;50.956;11.064;2023-11-22T08:42:19;8.83;;;7.07;;
12224;SDS011;6175;50.956;11.064;2023-11-22T08:44:49;9.70;;;6.83;;
12224;SDS011;6175;50.956;11.064;2023-11-22T08:47:16;8.10;;;7.00;;
12224;SDS011;6175;50.956;11.064;2023-11-22T08:49:44;7.67;;;6.23;;
12224;SDS011;6175;50.956;11.064;2023-11-22T08:52:13;8.63;;;6.70;;
12224;SDS011;6175;50.956;11.064;2023-11-22T08:54:40;8.57;;;6.73;;
12224;SDS011;6175;50.956;11.064;2023-11-22T08:57:07;9.20;;;6.77;;
12224;SDS011;6175;50.956;11.064;2023-11-22T08:59:36;7.60;;;6.13;;
12224;SDS011;6175;50.956;11.064;2023-11-22T09:02:06;7.60;;;6.40;;
12224;SDS011;6175;50.956;11.064;2023-11-22T09:04:37;8.00;;;6.27;;
12224;SDS011;6175;50.956;11.064;2023-11-22T09:07:06;7.90;;;6.30;;
12224;SDS011;6175;50.956;11.064;2023-11-22T09:09:35;9.47;;;6.83;;
12224;SDS011;6175;50.956;11.064;2023-11-22T09:12:02;8.53;;;6.40;;
12224;SDS011;6175;50.956;11.064;2023-11-22T09:14:37;9.27;;;7.50;;
12224;SDS011;6175;50.956;11.064;2023-11-22T09:17:06;8.80;;;6.93;;
12224;SDS011;6175;50.956;11.064;2023-11-22T09:19:34;8.83;;;6.57;;
12224;SDS011;6175;50.956;11.064;2023-11-22T09:22:02;9.53;;;6.63;;
12224;SDS011;6175;50.956;11.064;2023-11-22T09:24:31;8.57;;;6.43;;
12224;SDS011;6175;50.956;11.064;2023-11-22T09:26:58;9.43;;;6.50;;
12224;SDS011;6175;50.956;11.064;2023-11-22T09:29:30;8.70;;;6.57;;
12224;SDS011;6175;50.956;11.064;2023-11-22T09:31:57;7.67;;;6.17;;
12224;SDS011;6175;50.956;11.064;2023-11-22T09:34:27;8.97;;;6.30;;
12224;SDS011;6175;50.956;11.064;2023-11-22T09:36:55;7.97;;;6.43;;
12224;SDS011;6175;50.956;11.064;2023-11-22T09:39:22;7.03;;;5.90;;
12224;SDS011;6175;50.956;11.064;2023-11-22T09:41:50;8.73;;;6.20;;
12224;SDS011;6175;50.956;11.064;2023-11-22T09:44:18;8.67;;;6.37;;
12224;SDS011;6175;50.956;11.064;2023-11-22T09:46:47;7.33;;;5.80;;
12224;SDS011;6175;50.956;11.064;2023-11-22T09:49:18;7.07;;;5.53;;
12224;SDS011;6175;50.956;11.064;2023-11-22T09:51:52;8.83;;;5.87;;
12224;SDS011;6175;50.956;11.064;2023-11-22T09:54:22;8.53;;;6.03;;
12224;SDS011;6175;50.956;11.064;2023-11-22T09:56:55;7.20;;;5.87;;
12224;SDS011;6175;50.956;11.064;2023-11-22T09:59:26;8.57;;;6.67;;
12224;SDS011;6175;50.956;11.064;2023-11-22T10:01:54;6.30;;;5.27;;
12224;SDS011;6175;50.956;11.064;2023-11-22T10:04:24;7.60;;;5.80;;
12224;SDS011;6175;50.956;11.064;2023-11-22T10:06:55;8.13;;;5.90;;
12224;SDS011;6175;50.956;11.064;2023-11-22T10:09:24;7.27;;;5.30;;
12224;SDS011;6175;50.956;11.064;2023-11-22T10:11:56;6.43;;;5.60;;
12224;SDS011;6175;50.956;11.064;2023-11-22T10:14:24;8.47;;;6.57;;
12224;SDS011;6175;50.956;11.064;2023-11-22T10:16:58;7.47;;;6.07;;
12224;SDS011;6175;50.956;11.064;2023-11-22T10:19:26;7.53;;;5.63;;
12224;SDS011;6175;50.956;11.064;2023-11-22T10:22:03;8.30;;;5.57;;
12224;SDS011;6175;50.956;11.064;2023-11-22T10:24:31;7.23;;;5.80;;
12224;SDS011;6175;50.956;11.064;2023-11-22T10:26:59;6.43;;;5.50;;
12224;SDS011;6175;50.956;11.064;2023-11-22T10:29:26;8.02;;;6.25;;
12224;SDS011;6175;50.956;11.064;2023-11-22T10:31:53;5.97;;;4.93;;
12224;SDS011;6175;50.956;11.064;2023-11-22T10:34:22;7.20;;;5.63;;
12224;SDS011;6175;50.956;11.064;2023-11-22T10:36:50;7.97;;;6.03;;
12224;SDS011;6175;50.956;11.064;2023-11-22T10:39:20;6.20;;;5.23;;
12224;SDS011;6175;50.956;11.064;2023-11-22T10:41:47;6.07;;;5.25;;
12224;SDS011;6175;50.956;11.064;2023-11-22T10:44:16;7.75;;;5.85;;
12224;SDS011;6175;50.956;11.064;2023-11-22T10:46:46;6.43;;;5.77;;
12224;SDS011;6175;50.956;11.064;2023-11-22T10:49:15;8.63;;;6.70;;
12224;SDS011;6175;50.956;11.064;2023-11-22T10:51:43;6.53;;;5.77;;
12224;SDS011;6175;50.956;11.064;2023-11-22T10:54:12;6.30;;;5.70;;
12224;SDS011;6175;50.956;11.064;2023-11-22T10:56:41;6.77;;;5.80;;
12224;SDS011;6175;50.956;11.064;2023-11-22T10:59:13;6.20;;;5.57;;
12224;SDS011;6175;50.956;11.064;2023-11-22T11:01:45;7.30;;;5.53;;
12224;SDS011;6175;50.956;11.064;2023-11-22T11:04:17;7.80;;;5.80;;
12224;SDS011;6175;50.956;11.064;2023-11-22T11:06:47;7.32;;;6.38;;
12224;SDS011;6175;50.956;11.064;2023-11-22T11:09:18;7.43;;;5.97;;
12224;SDS011;6175;50.956;11.064;2023-11-22T11:11:51;9.07;;;6.27;;
12224;SDS011;6175;50.956;11.064;2023-11-22T11:14:18;6.90;;;6.20;;
12224;SDS011;6175;50.956;11.064;2023-11-22T11:16:45;8.60;;;6.50;;
12224;SDS011;6175;50.956;11.064;2023-11-22T11:19:15;8.17;;;6.80;;
12224;SDS011;6175;50.956;11.064;2023-11-22T11:21:43;7.70;;;6.43;;
12224;SDS011;6175;50.956;11.064;2023-11-22T11:24:11;7.67;;;6.40;;
12224;SDS011;6175;50.956;11.064;2023-11-22T11:26:39;7.80;;;6.70;;
12224;SDS011;6175;50.956;11.064;2023-11-22T11:29:07;9.80;;;6.77;;
12224;SDS011;6175;50.956;11.064;2023-11-22T11:31:58;7.80;;;6.83;;
12224;SDS011;6175;50.956;11.064;2023-11-22T11:34:26;7.63;;;6.83;;
12224;SDS011;6175;50.956;11.064;2023-11-22T11:36:54;7.93;;;6.50;;
12224;SDS011;6175;50.956;11.064;2023-11-22T11:39:24;8.53;;;7.13;;
12224;SDS011;6175;50.956;11.064;2023-11-22T11:42:07;7.80;;;6.70;;
12224;SDS011;6175;50.956;11.064;2023-11-22T11:44:36;7.65;;;6.45;;
12224;SDS011;6175;50.956;11.064;2023-11-22T11:47:10;8.85;;;6.88;;
12224;SDS011;6175;50.956;11.064;2023-11-22T11:49:37;8.50;;;6.53;;
12224;SDS011;6175;50.956;11.064;2023-11-22T11:52:05;7.77;;;6.97;;
12224;SDS011;6175;50.956;11.064;2023-11-22T11:54:33;7.88;;;6.25;;
12224;SDS011;6175;50.956;11.064;2023-11-22T11:57:01;7.33;;;6.53;;
12224;SDS011;6175;50.956;11.064;2023-11-22T11:59:28;8.00;;;6.70;;
12224;SDS011;6175;50.956;11.064;2023-11-22T12:01:59;6.83;;;6.13;;
12224;SDS011;6175;50.956;11.064;2023-11-22T12:04:26;7.00;;;5.95;;
12224;SDS011;6175;50.956;11.064;2023-11-22T12:06:53;8.68;;;6.97;;
12224;SDS011;6175;50.956;11.064;2023-11-22T12:09:23;7.90;;;6.57;;
12224;SDS011;6175;50.956;11.064;2023-11-22T12:11:51;6.75;;;6.05;;
12224;SDS011;6175;50.956;11.064;2023-11-22T12:14:19;7.07;;;6.17;;
12224;SDS011;6175;50.956;11.064;2023-11-22T12:16:46;7.00;;;6.20;;
12224;SDS011;6175;50.956;11.064;2023-11-22T12:19:21;7.05;;;6.10;;
12224;SDS011;6175;50.956;11.064;2023-11-22T12:21:49;7.00;;;6.30;;
12224;SDS011;6175;50.956;11.064;2023-11-22T12:24:16;6.88;;;5.70;;
12224;SDS011;6175;50.956;11.064;2023-11-22T12:26:44;5.95;;;5.05;;
12224;SDS011;6175;50.956;11.064;2023-11-22T12:29:13;6.30;;;5.70;;
12224;SDS011;6175;50.956;11.064;2023-11-22T12:31:45;7.10;;;6.20;;
12224;SDS011;6175;50.956;11.064;2023-11-22T12:34:13;8.52;;;6.25;;
12224;SDS011;6175;50.956;11.064;2023-11-22T12:36:42;8.00;;;6.50;;
12224;SDS011;6175;50.956;11.064;2023-11-22T12:39:10;6.80;;;5.72;;
12224;SDS011;6175;50.956;11.064;2023-11-22T12:41:42;8.33;;;5.93;;
12224;SDS011;6175;50.956;11.064;2023-11-22T12:44:10;8.23;;;6.87;;
12224;SDS011;6175;50.956;11.064;2023-11-22T12:46:47;8.80;;;7.07;;
12224;SDS011;6175;50.956;11.064;2023-11-22T12:49:20;7.03;;;6.33;;
12224;SDS011;6175;50.956;11.064;2023-11-22T12:51:49;7.53;;;6.70;;
12224;SDS011;6175;50.956;11.064;2023-11-22T12:54:19;6.77;;;6.07;;
12224;SDS011;6175;50.956;11.064;2023-11-22T12:56:47;7.70;;;6.90;;
12224;SDS011;6175;50.956;11.064;2023-11-22T12:59:15;7.57;;;6.40;;
12224;SDS011;6175;50.956;11.064;2023-11-22T13:01:43;7.50;;;6.67;;
12224;SDS011;6175;50.956;11.064;2023-11-22T13:04:11;6.83;;;5.77;;
12224;SDS011;6175;50.956;11.064;2023-11-22T13:06:39;9.17;;;6.47;;
12224;SDS011;6175;50.956;11.064;2023-11-22T13:09:07;7.37;;;5.97;;
12224;SDS011;6175;50.956;11.064;2023-11-22T13:11:39;7.23;;;5.93;;
12224;SDS011;6175;50.956;11.064;2023-11-22T13:14:07;6.97;;;6.28;;
12224;SDS011;6175;50.956;11.064;2023-11-22T13:16:34;10.27;;;6.90;;
12224;SDS011;6175;50.956;11.064;2023-11-22T13:19:03;7.75;;;6.75;;
12224;SDS011;6175;50.956;11.064;2023-11-22T13:21:31;6.78;;;6.07;;
12224;SDS011;6175;50.956;11.064;2023-11-22T13:23:58;7.83;;;6.60;;
12224;SDS011;6175;50.956;11.064;2023-11-22T13:26:27;6.73;;;6.00;;
12224;SDS011;6175;50.956;11.064;2023-11-22T13:28:54;7.13;;;6.40;;
12224;SDS011;6175;50.956;11.064;2023-11-22T13:31:22;9.23;;;6.70;;
12224;SDS011;6175;50.956;11.064;2023-11-22T13:33:49;7.53;;;6.80;;
12224;SDS011;6175;50.956;11.064;2023-11-22T13:36:16;7.60;;;6.80;;
12224;SDS011;6175;50.956;11.064;2023-11-22T13:38:43;9.43;;;7.47;;
12224;SDS011;6175;50.956;11.064;2023-11-22T13:41:10;8.10;;;7.30;;
12224;SDS011;6175;50.956;11.064;2023-11-22T13:43:39;7.80;;;6.57;;
12224;SDS011;6175;50.956;11.064;2023-11-22T13:46:06;6.78;;;5.90;;
12224;SDS011;6175;50.956;11.064;2023-11-22T13:48:35;7.83;;;6.60;;
12224;SDS011;6175;50.956;11.064;2023-11-22T13:51:02;7.70;;;6.90;;
12224;SDS011;6175;50.956;11.064;2023-11-22T13:53:32;7.23;;;6.53;;
12224;SDS011;6175;50.956;11.064;2023-11-22T13:56:01;7.00;;;6.30;;
12224;SDS011;6175;50.956;11.064;2023-11-22T13:58:33;8.70;;;7.53;;
12224;SDS011;6175;50.956;11.064;2023-11-22T14:01:02;9.33;;;7.07;;
12224;SDS011;6175;50.956;11.064;2023-11-22T14:03:31;6.70;;;6.10;;
12224;SDS011;6175;50.956;11.064;2023-11-22T14:05:59;9.17;;;6.50;;
12224;SDS011;6175;50.956;11.064;2023-11-22T14:08:30;7.93;;;6.07;;
12224;SDS011;6175;50.956;11.064;2023-11-22T14:10:57;8.90;;;6.70;;
12224;SDS011;6175;50.956;11.064;2023-11-22T14:13:24;7.07;;;6.33;;
12224;SDS011;6175;50.956;11.064;2023-11-22T14:15:51;7.17;;;6.40;;
12224;SDS011;6175;50.956;11.064;2023-11-22T14:18:20;8.27;;;6.77;;
12224;SDS011;6175;50.956;11.064;2023-11-22T14:20:47;8.20;;;6.93;;
12224;SDS011;6175;50.956;11.064;2023-11-22T14:23:14;8.13;;;6.40;;
12224;SDS011;6175;50.956;11.064;2023-11-22T14:25:42;7.13;;;6.40;;
12224;SDS011;6175;50.956;11.064;2023-11-22T14:28:09;8.83;;;6.40;;
12224;SDS011;6175;50.956;11.064;2023-11-22T14:30:36;7.87;;;6.80;;
12224;SDS011;6175;50.956;11.064;2023-11-22T14:33:03;7.37;;;6.20;;
12224;SDS011;6175;50.956;11.064;2023-11-22T14:35:34;8.63;;;7.00;;
12224;SDS011;6175;50.956;11.064;2023-11-22T14:38:01;7.40;;;6.60;;
12224;SDS011;6175;50.956;11.064;2023-11-22T14:40:30;7.93;;;7.13;;
12224;SDS011;6175;50.956;11.064;2023-11-22T14:42:58;8.40;;;7.00;;
12224;SDS011;6175;50.956;11.064;2023-11-22T14:45:27;7.73;;;6.97;;
12224;SDS011;6175;50.956;11.064;2023-11-22T14:47:55;7.87;;;6.57;;
12224;SDS011;6175;50.956;11.064;2023-11-22T14:50:23;9.87;;;7.37;;
12224;SDS011;6175;50.956;11.064;2023-11-22T14:52:54;8.17;;;7.33;;